sensor_id;sensor_type;location;lat;lon;timestamp;temperature;humidity
37896;DHT22;23733;53.254;10.430;2023-07-20T00:01:48;16.00;99.90
37896;DHT22;23733;53.254;10.430;2023-07-20T00:04:14;16.10;99.90
37896;DHT22;23733;53.254;10.430;2023-07-20T00:06:40;16.00;99.90
37896;DHT22;23733;53.254;10.430;2023-07-20T00:09:07;16.00;99.90
37896;DHT22;23733;53.254;10.430;2023-07-20T00:11:36;16.00;99.90
37896;DHT22;23733;53.254;10.430;2023-07-20T00:14:02;16.00;99.90
37896;DHT22;23733;53.254;10.430;2023-07-20T00:16:28;15.90;99.90
37896;DHT22;23733;53.254;10.430;2023-07-20T00:18:54;15.90;99.90
37896;DHT22;23733;53.254;10.430;2023-07-20T00:21:20;15.80;99.90
37896;DHT22;23733;53.254;10.430;2023-07-20T00:23:46;15.80;99.90
37896;DHT22;23733;53.254;10.430;2023-07-20T00:26:12;15.80;99.90
37896;DHT22;23733;53.254;10.430;2023-07-20T00:28:38;15.80;99.90
37896;DHT22;23733;53.254;10.430;2023-07-20T00:31:04;15.80;99.90
37896;DHT22;23733;53.254;10.430;2023-07-20T00:33:30;15.80;99.90
37896;DHT22;23733;53.254;10.430;2023-07-20T00:35:56;15.80;99.90
37896;DHT22;23733;53.254;10.430;2023-07-20T00:38:22;15.80;99.90
37896;DHT22;23733;53.254;10.430;2023-07-20T00:40:48;15.80;99.90
37896;DHT22;23733;53.254;10.430;2023-07-20T00:43:15;15.80;99.90
37896;DHT22;23733;53.254;10.430;2023-07-20T00:45:42;15.70;99.90
37896;DHT22;23733;53.254;10.430;2023-07-20T00:48:09;15.70;99.90
37896;DHT22;23733;53.254;10.430;2023-07-20T00:50:36;15.60;99.90
37896;DHT22;23733;53.254;10.430;2023-07-20T00:53:03;15.50;99.90
37896;DHT22;23733;53.254;10.430;2023-07-20T00:55:30;15.50;99.90
37896;DHT22;23733;53.254;10.430;2023-07-20T00:57:57;15.50;99.90
37896;DHT22;23733;53.254;10.430;2023-07-20T01:00:23;15.50;99.90
37896;DHT22;23733;53.254;10.430;2023-07-20T01:02:51;15.40;99.90
37896;DHT22;23733;53.254;10.430;2023-07-20T01:05:17;15.40;99.90
37896;DHT22;23733;53.254;10.430;2023-07-20T01:07:53;15.40;99.90
37896;DHT22;23733;53.254;10.430;2023-07-20T01:10:29;15.30;99.90
37896;DHT22;23733;53.254;10.430;2023-07-20T01:12:57;15.20;99.90
37896;DHT22;23733;53.254;10.430;2023-07-20T01:15:24;15.20;99.90
37896;DHT22;23733;53.254;10.430;2023-07-20T01:17:50;15.30;99.90
37896;DHT22;23733;53.254;10.430;2023-07-20T01:20:18;15.30;99.90
37896;DHT22;23733;53.254;10.430;2023-07-20T01:28:50;15.40;99.90
37896;DHT22;23733;53.254;10.430;2023-07-20T01:31:26;15.30;99.90
37896;DHT22;23733;53.254;10.430;2023-07-20T01:34:00;15.30;99.90
37896;DHT22;23733;53.254;10.430;2023-07-20T01:36:30;15.30;99.90
37896;DHT22;23733;53.254;10.430;2023-07-20T01:38:59;15.40;99.90
37896;DHT22;23733;53.254;10.430;2023-07-20T01:41:25;15.30;99.90
37896;DHT22;23733;53.254;10.430;2023-07-20T01:43:51;15.30;99.90
37896;DHT22;23733;53.254;10.430;2023-07-20T01:46:17;15.30;99.90
37896;DHT22;23733;53.254;10.430;2023-07-20T01:48:43;15.30;99.90
37896;DHT22;23733;53.254;10.430;2023-07-20T01:51:09;15.20;99.90
37896;DHT22;23733;53.254;10.430;2023-07-20T01:53:35;15.10;99.90
37896;DHT22;23733;53.254;10.430;2023-07-20T01:56:01;15.10;99.90
37896;DHT22;23733;53.254;10.430;2023-07-20T01:58:27;15.00;99.90
37896;DHT22;23733;53.254;10.430;2023-07-20T02:00:53;15.10;99.90
37896;DHT22;23733;53.254;10.430;2023-07-20T02:03:19;15.00;99.90
37896;DHT22;23733;53.254;10.430;2023-07-20T02:05:47;15.00;99.90
37896;DHT22;23733;53.254;10.430;2023-07-20T02:08:13;15.00;99.90
37896;DHT22;23733;53.254;10.430;2023-07-20T02:10:39;15.00;99.90
37896;DHT22;23733;53.254;10.430;2023-07-20T02:13:05;14.90;99.90
37896;DHT22;23733;53.254;10.430;2023-07-20T02:15:31;15.00;99.90
37896;DHT22;23733;53.254;10.430;2023-07-20T02:17:57;15.00;99.90
37896;DHT22;23733;53.254;10.430;2023-07-20T02:20:23;15.00;99.90
37896;DHT22;23733;53.254;10.430;2023-07-20T02:22:49;15.00;99.90
37896;DHT22;23733;53.254;10.430;2023-07-20T02:25:15;15.00;99.90
37896;DHT22;23733;53.254;10.430;2023-07-20T02:27:42;15.00;99.90
37896;DHT22;23733;53.254;10.430;2023-07-20T02:30:08;15.10;99.90
37896;DHT22;23733;53.254;10.430;2023-07-20T02:32:35;15.00;99.90
37896;DHT22;23733;53.254;10.430;2023-07-20T02:35:01;15.10;99.90
37896;DHT22;23733;53.254;10.430;2023-07-20T02:37:29;15.00;99.90
37896;DHT22;23733;53.254;10.430;2023-07-20T02:39:55;15.00;99.90
37896;DHT22;23733;53.254;10.430;2023-07-20T02:42:21;15.00;99.90
37896;DHT22;23733;53.254;10.430;2023-07-20T02:44:48;15.00;99.90
37896;DHT22;23733;53.254;10.430;2023-07-20T02:47:15;15.00;99.90
37896;DHT22;23733;53.254;10.430;2023-07-20T02:49:41;15.00;99.90
37896;DHT22;23733;53.254;10.430;2023-07-20T02:52:07;15.10;99.90
37896;DHT22;23733;53.254;10.430;2023-07-20T02:54:33;15.00;99.90
37896;DHT22;23733;53.254;10.430;2023-07-20T02:56:59;15.00;99.90
37896;DHT22;23733;53.254;10.430;2023-07-20T02:59:25;15.10;99.90
37896;DHT22;23733;53.254;10.430;2023-07-20T03:01:51;15.00;99.90
37896;DHT22;23733;53.254;10.430;2023-07-20T03:04:17;14.90;99.90
37896;DHT22;23733;53.254;10.430;2023-07-20T03:06:43;14.80;99.90
37896;DHT22;23733;53.254;10.430;2023-07-20T03:09:09;14.80;99.90
37896;DHT22;23733;53.254;10.430;2023-07-20T03:11:35;14.80;99.90
37896;DHT22;23733;53.254;10.430;2023-07-20T03:14:01;14.70;99.90
37896;DHT22;23733;53.254;10.430;2023-07-20T03:16:27;14.70;99.90
37896;DHT22;23733;53.254;10.430;2023-07-20T03:18:53;14.70;99.90
37896;DHT22;23733;53.254;10.430;2023-07-20T03:21:19;14.70;99.90
37896;DHT22;23733;53.254;10.430;2023-07-20T03:23:45;14.70;99.90
37896;DHT22;23733;53.254;10.430;2023-07-20T03:26:11;14.80;99.90
37896;DHT22;23733;53.254;10.430;2023-07-20T03:28:38;14.80;99.90
37896;DHT22;23733;53.254;10.430;2023-07-20T03:31:04;14.80;99.90
37896;DHT22;23733;53.254;10.430;2023-07-20T03:33:31;14.80;99.90
37896;DHT22;23733;53.254;10.430;2023-07-20T03:35:58;14.80;99.90
37896;DHT22;23733;53.254;10.430;2023-07-20T03:38:24;14.80;99.90
37896;DHT22;23733;53.254;10.430;2023-07-20T03:40:51;14.80;99.90
37896;DHT22;23733;53.254;10.430;2023-07-20T03:43:18;14.90;99.90
37896;DHT22;23733;53.254;10.430;2023-07-20T03:45:44;14.90;99.90
37896;DHT22;23733;53.254;10.430;2023-07-20T03:48:11;14.90;99.90
37896;DHT22;23733;53.254;10.430;2023-07-20T03:50:38;14.90;99.90
37896;DHT22;23733;53.254;10.430;2023-07-20T03:53:04;14.90;99.90
37896;DHT22;23733;53.254;10.430;2023-07-20T03:55:30;14.90;99.90
37896;DHT22;23733;53.254;10.430;2023-07-20T03:57:56;14.90;99.90
37896;DHT22;23733;53.254;10.430;2023-07-20T04:00:23;14.90;99.90
37896;DHT22;23733;53.254;10.430;2023-07-20T04:02:49;14.90;99.90
37896;DHT22;23733;53.254;10.430;2023-07-20T04:05:15;14.90;99.90
37896;DHT22;23733;53.254;10.430;2023-07-20T04:07:41;14.90;99.90
37896;DHT22;23733;53.254;10.430;2023-07-20T04:10:07;14.90;99.90
37896;DHT22;23733;53.254;10.430;2023-07-20T04:12:34;14.90;99.90
37896;DHT22;23733;53.254;10.430;2023-07-20T04:15:00;14.90;99.90
37896;DHT22;23733;53.254;10.430;2023-07-20T04:17:26;14.80;99.90
37896;DHT22;23733;53.254;10.430;2023-07-20T04:19:52;14.80;99.90
37896;DHT22;23733;53.254;10.430;2023-07-20T04:22:18;14.80;99.90
37896;DHT22;23733;53.254;10.430;2023-07-20T04:24:44;14.80;99.90
37896;DHT22;23733;53.254;10.430;2023-07-20T04:27:10;14.70;99.90
37896;DHT22;23733;53.254;10.430;2023-07-20T04:29:36;14.70;99.90
37896;DHT22;23733;53.254;10.430;2023-07-20T04:32:02;14.80;99.90
37896;DHT22;23733;53.254;10.430;2023-07-20T04:34:28;14.80;99.90
37896;DHT22;23733;53.254;10.430;2023-07-20T04:36:54;14.80;99.90
37896;DHT22;23733;53.254;10.430;2023-07-20T04:39:20;14.80;99.90
37896;DHT22;23733;53.254;10.430;2023-07-20T04:41:46;14.90;99.90
37896;DHT22;23733;53.254;10.430;2023-07-20T04:44:13;14.90;99.90
37896;DHT22;23733;53.254;10.430;2023-07-20T04:46:40;14.90;99.90
37896;DHT22;23733;53.254;10.430;2023-07-20T04:49:06;15.00;99.90
37896;DHT22;23733;53.254;10.430;2023-07-20T04:51:32;15.00;99.90
37896;DHT22;23733;53.254;10.430;2023-07-20T04:56:24;15.00;99.90
37896;DHT22;23733;53.254;10.430;2023-07-20T05:03:43;15.00;99.90
37896;DHT22;23733;53.254;10.430;2023-07-20T05:06:09;15.00;99.90
37896;DHT22;23733;53.254;10.430;2023-07-20T05:08:35;15.00;99.90
37896;DHT22;23733;53.254;10.430;2023-07-20T05:11:01;15.00;99.90
37896;DHT22;23733;53.254;10.430;2023-07-20T05:13:27;15.00;99.90
37896;DHT22;23733;53.254;10.430;2023-07-20T05:15:53;15.00;99.90
37896;DHT22;23733;53.254;10.430;2023-07-20T05:18:20;14.90;99.90
37896;DHT22;23733;53.254;10.430;2023-07-20T05:20:47;15.00;99.90
37896;DHT22;23733;53.254;10.430;2023-07-20T05:23:13;15.00;99.90
37896;DHT22;23733;53.254;10.430;2023-07-20T05:25:40;15.00;99.90
37896;DHT22;23733;53.254;10.430;2023-07-20T05:28:06;15.00;99.90
37896;DHT22;23733;53.254;10.430;2023-07-20T05:30:32;15.10;99.90
37896;DHT22;23733;53.254;10.430;2023-07-20T05:32:58;15.00;99.90
37896;DHT22;23733;53.254;10.430;2023-07-20T05:35:26;15.10;99.90
37896;DHT22;23733;53.254;10.430;2023-07-20T05:40:18;15.20;99.90
37896;DHT22;23733;53.254;10.430;2023-07-20T06:04:44;15.20;99.90
37896;DHT22;23733;53.254;10.430;2023-07-20T06:07:10;15.50;99.90
37896;DHT22;23733;53.254;10.430;2023-07-20T06:09:36;15.40;99.90
37896;DHT22;23733;53.254;10.430;2023-07-20T06:12:02;15.40;99.90
37896;DHT22;23733;53.254;10.430;2023-07-20T06:14:28;15.40;99.90
37896;DHT22;23733;53.254;10.430;2023-07-20T06:16:54;15.40;99.90
37896;DHT22;23733;53.254;10.430;2023-07-20T06:19:20;15.40;99.90
37896;DHT22;23733;53.254;10.430;2023-07-20T06:21:48;15.50;99.90
37896;DHT22;23733;53.254;10.430;2023-07-20T06:24:16;15.50;99.90
37896;DHT22;23733;53.254;10.430;2023-07-20T06:26:42;15.50;99.90
37896;DHT22;23733;53.254;10.430;2023-07-20T06:29:08;15.50;99.90
37896;DHT22;23733;53.254;10.430;2023-07-20T06:31:35;15.50;99.90
37896;DHT22;23733;53.254;10.430;2023-07-20T06:34:02;15.50;99.90
37896;DHT22;23733;53.254;10.430;2023-07-20T06:36:28;15.60;99.90
37896;DHT22;23733;53.254;10.430;2023-07-20T06:38:55;15.70;99.90
37896;DHT22;23733;53.254;10.430;2023-07-20T06:41:21;15.80;99.90
37896;DHT22;23733;53.254;10.430;2023-07-20T06:43:48;15.90;99.90
37896;DHT22;23733;53.254;10.430;2023-07-20T06:46:14;15.80;99.90
37896;DHT22;23733;53.254;10.430;2023-07-20T06:48:40;15.90;99.90
37896;DHT22;23733;53.254;10.430;2023-07-20T06:51:06;16.00;99.90
37896;DHT22;23733;53.254;10.430;2023-07-20T06:53:32;15.90;99.90
37896;DHT22;23733;53.254;10.430;2023-07-20T06:55:58;16.00;99.90
37896;DHT22;23733;53.254;10.430;2023-07-20T06:58:25;16.10;99.90
37896;DHT22;23733;53.254;10.430;2023-07-20T07:00:51;16.20;99.90
37896;DHT22;23733;53.254;10.430;2023-07-20T07:03:17;16.30;99.90
37896;DHT22;23733;53.254;10.430;2023-07-20T07:05:44;16.30;99.90
37896;DHT22;23733;53.254;10.430;2023-07-20T07:13:09;16.40;99.90
37896;DHT22;23733;53.254;10.430;2023-07-20T07:15:35;16.80;99.90
37896;DHT22;23733;53.254;10.430;2023-07-20T07:18:02;16.90;99.90
37896;DHT22;23733;53.254;10.430;2023-07-20T07:20:29;16.90;99.90
37896;DHT22;23733;53.254;10.430;2023-07-20T07:22:55;16.90;99.90
37896;DHT22;23733;53.254;10.430;2023-07-20T07:25:23;17.00;99.90
37896;DHT22;23733;53.254;10.430;2023-07-20T07:27:49;17.10;99.90
37896;DHT22;23733;53.254;10.430;2023-07-20T07:30:15;17.20;99.90
37896;DHT22;23733;53.254;10.430;2023-07-20T07:32:41;17.20;99.90
37896;DHT22;23733;53.254;10.430;2023-07-20T07:35:07;17.30;99.90
37896;DHT22;23733;53.254;10.430;2023-07-20T07:37:33;17.40;99.90
37896;DHT22;23733;53.254;10.430;2023-07-20T07:39:59;17.40;99.90
37896;DHT22;23733;53.254;10.430;2023-07-20T07:42:25;17.30;99.90
37896;DHT22;23733;53.254;10.430;2023-07-20T07:44:51;17.40;99.90
37896;DHT22;23733;53.254;10.430;2023-07-20T07:47:17;17.40;99.90
37896;DHT22;23733;53.254;10.430;2023-07-20T07:49:43;17.50;99.90
37896;DHT22;23733;53.254;10.430;2023-07-20T07:52:09;17.60;99.90
37896;DHT22;23733;53.254;10.430;2023-07-20T07:54:35;17.70;99.90
37896;DHT22;23733;53.254;10.430;2023-07-20T07:57:01;17.70;99.90
37896;DHT22;23733;53.254;10.430;2023-07-20T07:59:27;17.90;99.90
37896;DHT22;23733;53.254;10.430;2023-07-20T08:01:53;18.00;99.90
37896;DHT22;23733;53.254;10.430;2023-07-20T08:04:19;18.00;99.90
37896;DHT22;23733;53.254;10.430;2023-07-20T08:06:45;18.10;99.90
37896;DHT22;23733;53.254;10.430;2023-07-20T08:09:11;18.30;99.90
37896;DHT22;23733;53.254;10.430;2023-07-20T08:11:39;18.30;99.90
37896;DHT22;23733;53.254;10.430;2023-07-20T10:31:49;18.30;99.90
37896;DHT22;23733;53.254;10.430;2023-07-20T10:34:16;19.60;99.90
37896;DHT22;23733;53.254;10.430;2023-07-20T10:56:50;19.70;99.90
37896;DHT22;23733;53.254;10.430;2023-07-20T11:36:43;20.80;99.90
37896;DHT22;23733;53.254;10.430;2023-07-20T11:39:10;19.90;99.90
37896;DHT22;23733;53.254;10.430;2023-07-20T11:41:36;20.10;99.90
37896;DHT22;23733;53.254;10.430;2023-07-20T11:44:02;20.20;99.90
37896;DHT22;23733;53.254;10.430;2023-07-20T11:46:28;20.20;99.90
37896;DHT22;23733;53.254;10.430;2023-07-20T11:48:57;20.30;99.90
37896;DHT22;23733;53.254;10.430;2023-07-20T11:51:24;20.30;99.90
37896;DHT22;23733;53.254;10.430;2023-07-20T11:53:50;20.40;99.90
37896;DHT22;23733;53.254;10.430;2023-07-20T11:56:16;20.50;99.90
37896;DHT22;23733;53.254;10.430;2023-07-20T11:58:46;20.50;99.90
37896;DHT22;23733;53.254;10.430;2023-07-20T12:01:13;20.50;99.90
37896;DHT22;23733;53.254;10.430;2023-07-20T12:03:39;20.50;99.90
37896;DHT22;23733;53.254;10.430;2023-07-20T12:06:09;20.60;99.90
37896;DHT22;23733;53.254;10.430;2023-07-20T12:08:39;20.70;99.90
37896;DHT22;23733;53.254;10.430;2023-07-20T12:11:06;20.80;99.90
37896;DHT22;23733;53.254;10.430;2023-07-20T12:13:41;20.70;99.90
37896;DHT22;23733;53.254;10.430;2023-07-20T12:18:37;20.40;99.90
37896;DHT22;23733;53.254;10.430;2023-07-20T12:21:03;20.00;99.90
37896;DHT22;23733;53.254;10.430;2023-07-20T12:23:42;19.90;99.90
37896;DHT22;23733;53.254;10.430;2023-07-20T12:26:09;19.80;99.90
37896;DHT22;23733;53.254;10.430;2023-07-20T12:28:42;19.90;99.90
37896;DHT22;23733;53.254;10.430;2023-07-20T12:31:09;20.00;99.90
37896;DHT22;23733;53.254;10.430;2023-07-20T12:33:39;19.90;99.90
37896;DHT22;23733;53.254;10.430;2023-07-20T12:36:05;19.90;99.90
37896;DHT22;23733;53.254;10.430;2023-07-20T12:38:32;19.80;99.90
37896;DHT22;23733;53.254;10.430;2023-07-20T12:40:58;19.70;99.90
37896;DHT22;23733;53.254;10.430;2023-07-20T12:43:24;19.90;99.90
37896;DHT22;23733;53.254;10.430;2023-07-20T12:45:50;20.00;99.90
37896;DHT22;23733;53.254;10.430;2023-07-20T12:48:16;20.10;99.90
37896;DHT22;23733;53.254;10.430;2023-07-20T12:50:42;20.10;99.90
37896;DHT22;23733;53.254;10.430;2023-07-20T13:24:52;20.20;99.90
37896;DHT22;23733;53.254;10.430;2023-07-20T13:27:19;20.70;99.90
37896;DHT22;23733;53.254;10.430;2023-07-20T13:29:45;20.70;99.90
37896;DHT22;23733;53.254;10.430;2023-07-20T13:32:15;20.60;99.90
37896;DHT22;23733;53.254;10.430;2023-07-20T13:34:41;20.40;99.90
37896;DHT22;23733;53.254;10.430;2023-07-20T13:37:08;20.40;99.90
37896;DHT22;23733;53.254;10.430;2023-07-20T13:39:34;20.30;99.90
37896;DHT22;23733;53.254;10.430;2023-07-20T13:42:00;20.30;99.90
37896;DHT22;23733;53.254;10.430;2023-07-20T13:44:31;20.10;99.90
37896;DHT22;23733;53.254;10.430;2023-07-20T13:46:57;20.00;99.90
37896;DHT22;23733;53.254;10.430;2023-07-20T13:49:24;19.90;99.90
37896;DHT22;23733;53.254;10.430;2023-07-20T13:51:50;19.80;99.90
37896;DHT22;23733;53.254;10.430;2023-07-20T13:54:16;19.80;99.90
37896;DHT22;23733;53.254;10.430;2023-07-20T13:56:42;19.80;99.90
37896;DHT22;23733;53.254;10.430;2023-07-20T13:59:08;19.80;99.90
37896;DHT22;23733;53.254;10.430;2023-07-20T14:01:34;19.90;99.90
37896;DHT22;23733;53.254;10.430;2023-07-20T14:04:02;20.00;99.90
37896;DHT22;23733;53.254;10.430;2023-07-20T14:06:29;20.10;99.90
37896;DHT22;23733;53.254;10.430;2023-07-20T14:08:56;20.00;99.90
37896;DHT22;23733;53.254;10.430;2023-07-20T14:11:22;20.00;99.90
37896;DHT22;23733;53.254;10.430;2023-07-20T14:13:50;19.90;99.90
37896;DHT22;23733;53.254;10.430;2023-07-20T14:16:16;19.90;99.90
37896;DHT22;23733;53.254;10.430;2023-07-20T14:18:42;20.00;99.90
37896;DHT22;23733;53.254;10.430;2023-07-20T14:21:09;20.10;99.90
37896;DHT22;23733;53.254;10.430;2023-07-20T14:23:35;20.10;99.90
37896;DHT22;23733;53.254;10.430;2023-07-20T14:26:02;20.10;99.90
37896;DHT22;23733;53.254;10.430;2023-07-20T14:28:31;20.10;99.90
37896;DHT22;23733;53.254;10.430;2023-07-20T14:33:24;20.00;99.90
37896;DHT22;23733;53.254;10.430;2023-07-20T16:08:52;19.50;99.90
37896;DHT22;23733;53.254;10.430;2023-07-20T16:11:19;19.70;99.90
37896;DHT22;23733;53.254;10.430;2023-07-20T16:13:46;19.70;99.90
37896;DHT22;23733;53.254;10.430;2023-07-20T16:16:12;19.70;99.90
37896;DHT22;23733;53.254;10.430;2023-07-20T16:18:39;19.70;99.90
37896;DHT22;23733;53.254;10.430;2023-07-20T16:21:05;19.80;99.90
37896;DHT22;23733;53.254;10.430;2023-07-20T16:25:57;19.80;99.90
37896;DHT22;23733;53.254;10.430;2023-07-20T16:28:23;19.80;99.90
37896;DHT22;23733;53.254;10.430;2023-07-20T16:30:50;19.70;99.90
37896;DHT22;23733;53.254;10.430;2023-07-20T16:33:16;19.70;99.90
37896;DHT22;23733;53.254;10.430;2023-07-20T16:35:43;19.70;99.90
37896;DHT22;23733;53.254;10.430;2023-07-20T16:38:09;19.60;99.90
37896;DHT22;23733;53.254;10.430;2023-07-20T16:40:37;19.50;99.90
37896;DHT22;23733;53.254;10.430;2023-07-20T16:43:03;19.60;99.90
37896;DHT22;23733;53.254;10.430;2023-07-20T16:45:32;19.70;99.90
37896;DHT22;23733;53.254;10.430;2023-07-20T16:47:58;19.70;99.90
37896;DHT22;23733;53.254;10.430;2023-07-20T16:50:24;19.80;99.90
37896;DHT22;23733;53.254;10.430;2023-07-20T16:52:50;19.80;99.90
37896;DHT22;23733;53.254;10.430;2023-07-20T16:55:17;19.80;99.90
37896;DHT22;23733;53.254;10.430;2023-07-20T16:57:43;19.90;99.90
37896;DHT22;23733;53.254;10.430;2023-07-20T17:00:09;19.90;99.90
37896;DHT22;23733;53.254;10.430;2023-07-20T17:02:40;19.90;99.90
37896;DHT22;23733;53.254;10.430;2023-07-20T17:05:06;20.00;99.90
37896;DHT22;23733;53.254;10.430;2023-07-20T17:07:39;19.90;99.90
37896;DHT22;23733;53.254;10.430;2023-07-20T17:10:06;19.90;99.90
37896;DHT22;23733;53.254;10.430;2023-07-20T17:12:33;19.90;99.90
37896;DHT22;23733;53.254;10.430;2023-07-20T17:14:59;19.80;99.90
37896;DHT22;23733;53.254;10.430;2023-07-20T17:17:25;19.80;99.90
37896;DHT22;23733;53.254;10.430;2023-07-20T17:19:51;19.80;99.90
37896;DHT22;23733;53.254;10.430;2023-07-20T17:22:17;19.80;99.90
37896;DHT22;23733;53.254;10.430;2023-07-20T17:24:43;19.80;99.90
37896;DHT22;23733;53.254;10.430;2023-07-20T17:27:09;19.80;99.90
37896;DHT22;23733;53.254;10.430;2023-07-20T17:29:37;19.70;99.90
37896;DHT22;23733;53.254;10.430;2023-07-20T17:32:03;19.60;99.90
37896;DHT22;23733;53.254;10.430;2023-07-20T17:34:30;19.60;99.90
37896;DHT22;23733;53.254;10.430;2023-07-20T17:36:56;19.60;99.90
37896;DHT22;23733;53.254;10.430;2023-07-20T17:39:22;19.60;99.90
37896;DHT22;23733;53.254;10.430;2023-07-20T17:41:48;19.60;99.90
37896;DHT22;23733;53.254;10.430;2023-07-20T17:44:16;19.60;99.90
37896;DHT22;23733;53.254;10.430;2023-07-20T17:46:42;19.60;99.90
37896;DHT22;23733;53.254;10.430;2023-07-20T17:49:08;19.60;99.90
37896;DHT22;23733;53.254;10.430;2023-07-20T17:51:34;19.60;99.90
37896;DHT22;23733;53.254;10.430;2023-07-20T17:54:00;19.50;99.90
37896;DHT22;23733;53.254;10.430;2023-07-20T17:56:26;19.50;99.90
37896;DHT22;23733;53.254;10.430;2023-07-20T17:58:52;19.50;99.90
37896;DHT22;23733;53.254;10.430;2023-07-20T18:01:18;19.50;99.90
37896;DHT22;23733;53.254;10.430;2023-07-20T18:03:44;19.50;99.90
37896;DHT22;23733;53.254;10.430;2023-07-20T18:06:10;19.40;99.90
37896;DHT22;23733;53.254;10.430;2023-07-20T18:08:36;19.40;99.90
37896;DHT22;23733;53.254;10.430;2023-07-20T18:11:06;19.30;99.90
37896;DHT22;23733;53.254;10.430;2023-07-20T18:13:33;19.20;99.90
37896;DHT22;23733;53.254;10.430;2023-07-20T18:15:59;19.30;99.90
37896;DHT22;23733;53.254;10.430;2023-07-20T18:18:25;19.20;99.90
37896;DHT22;23733;53.254;10.430;2023-07-20T18:20:52;19.20;99.90
37896;DHT22;23733;53.254;10.430;2023-07-20T18:23:18;19.20;99.90
37896;DHT22;23733;53.254;10.430;2023-07-20T18:25:45;19.20;99.90
37896;DHT22;23733;53.254;10.430;2023-07-20T18:28:12;19.10;99.90
37896;DHT22;23733;53.254;10.430;2023-07-20T18:30:42;19.10;99.90
37896;DHT22;23733;53.254;10.430;2023-07-20T18:33:08;19.10;99.90
37896;DHT22;23733;53.254;10.430;2023-07-20T18:35:34;19.00;99.90
37896;DHT22;23733;53.254;10.430;2023-07-20T18:38:00;18.90;99.90
37896;DHT22;23733;53.254;10.430;2023-07-20T18:40:26;18.90;99.90
37896;DHT22;23733;53.254;10.430;2023-07-20T18:42:53;18.80;99.90
37896;DHT22;23733;53.254;10.430;2023-07-20T18:45:19;18.80;99.90
37896;DHT22;23733;53.254;10.430;2023-07-20T18:47:45;18.80;99.90
37896;DHT22;23733;53.254;10.430;2023-07-20T18:50:14;18.80;99.90
37896;DHT22;23733;53.254;10.430;2023-07-20T18:52:41;18.80;99.90
37896;DHT22;23733;53.254;10.430;2023-07-20T18:55:07;18.70;99.90
37896;DHT22;23733;53.254;10.430;2023-07-20T18:57:35;18.70;99.90
37896;DHT22;23733;53.254;10.430;2023-07-20T19:00:03;18.60;99.90
37896;DHT22;23733;53.254;10.430;2023-07-20T19:02:30;18.60;99.90
37896;DHT22;23733;53.254;10.430;2023-07-20T19:04:56;18.60;99.90
37896;DHT22;23733;53.254;10.430;2023-07-20T19:07:23;18.50;99.90
37896;DHT22;23733;53.254;10.430;2023-07-20T19:09:49;18.50;99.90
37896;DHT22;23733;53.254;10.430;2023-07-20T19:12:15;18.50;99.90
37896;DHT22;23733;53.254;10.430;2023-07-20T19:14:41;18.40;99.90
37896;DHT22;23733;53.254;10.430;2023-07-20T19:17:07;18.50;99.90
37896;DHT22;23733;53.254;10.430;2023-07-20T19:19:34;18.40;99.90
37896;DHT22;23733;53.254;10.430;2023-07-20T19:22:00;18.40;99.90
37896;DHT22;23733;53.254;10.430;2023-07-20T19:24:26;18.30;99.90
37896;DHT22;23733;53.254;10.430;2023-07-20T19:26:53;18.30;99.90
37896;DHT22;23733;53.254;10.430;2023-07-20T19:29:19;18.30;99.90
37896;DHT22;23733;53.254;10.430;2023-07-20T19:31:45;18.30;99.90
37896;DHT22;23733;53.254;10.430;2023-07-20T19:34:11;18.30;99.90
37896;DHT22;23733;53.254;10.430;2023-07-20T19:36:37;18.30;99.90
37896;DHT22;23733;53.254;10.430;2023-07-20T19:39:03;18.30;99.90
37896;DHT22;23733;53.254;10.430;2023-07-20T19:41:29;18.20;99.90
37896;DHT22;23733;53.254;10.430;2023-07-20T19:43:55;18.20;99.90
37896;DHT22;23733;53.254;10.430;2023-07-20T19:46:21;18.20;99.90
37896;DHT22;23733;53.254;10.430;2023-07-20T19:48:47;18.20;99.90
37896;DHT22;23733;53.254;10.430;2023-07-20T19:51:14;18.20;99.90
37896;DHT22;23733;53.254;10.430;2023-07-20T19:53:40;18.20;99.90
37896;DHT22;23733;53.254;10.430;2023-07-20T19:56:06;18.20;99.90
37896;DHT22;23733;53.254;10.430;2023-07-20T19:58:35;18.10;99.90
37896;DHT22;23733;53.254;10.430;2023-07-20T20:01:01;18.10;99.90
37896;DHT22;23733;53.254;10.430;2023-07-20T20:03:27;18.00;99.90
37896;DHT22;23733;53.254;10.430;2023-07-20T20:05:53;18.00;99.90
37896;DHT22;23733;53.254;10.430;2023-07-20T20:08:20;18.00;99.90
37896;DHT22;23733;53.254;10.430;2023-07-20T20:10:47;18.10;99.90
37896;DHT22;23733;53.254;10.430;2023-07-20T20:13:13;18.00;99.90
37896;DHT22;23733;53.254;10.430;2023-07-20T20:15:40;18.00;99.90
37896;DHT22;23733;53.254;10.430;2023-07-20T20:18:06;18.00;99.90
37896;DHT22;23733;53.254;10.430;2023-07-20T20:20:35;18.00;99.90
37896;DHT22;23733;53.254;10.430;2023-07-20T20:23:17;18.00;99.90
37896;DHT22;23733;53.254;10.430;2023-07-20T20:25:45;17.90;99.90
37896;DHT22;23733;53.254;10.430;2023-07-20T20:28:12;17.80;99.90
37896;DHT22;23733;53.254;10.430;2023-07-20T20:30:47;17.80;99.90
37896;DHT22;23733;53.254;10.430;2023-07-20T20:33:18;17.80;99.90
37896;DHT22;23733;53.254;10.430;2023-07-20T20:35:46;17.80;99.90
37896;DHT22;23733;53.254;10.430;2023-07-20T20:38:18;17.80;99.90
37896;DHT22;23733;53.254;10.430;2023-07-20T20:40:45;17.80;99.90
37896;DHT22;23733;53.254;10.430;2023-07-20T20:43:12;17.70;99.90
37896;DHT22;23733;53.254;10.430;2023-07-20T20:45:38;17.70;99.90
37896;DHT22;23733;53.254;10.430;2023-07-20T20:48:05;17.80;99.90
37896;DHT22;23733;53.254;10.430;2023-07-20T20:50:38;17.80;99.90
37896;DHT22;23733;53.254;10.430;2023-07-20T20:53:13;17.80;99.90
37896;DHT22;23733;53.254;10.430;2023-07-20T20:55:40;17.80;99.90
37896;DHT22;23733;53.254;10.430;2023-07-20T20:58:06;17.80;99.90
37896;DHT22;23733;53.254;10.430;2023-07-20T21:00:32;17.80;99.90
37896;DHT22;23733;53.254;10.430;2023-07-20T21:02:58;17.80;99.90
37896;DHT22;23733;53.254;10.430;2023-07-20T21:05:25;17.80;99.90
37896;DHT22;23733;53.254;10.430;2023-07-20T21:07:51;17.90;99.90
37896;DHT22;23733;53.254;10.430;2023-07-20T21:10:17;17.90;99.90
37896;DHT22;23733;53.254;10.430;2023-07-20T21:12:44;17.90;99.90
37896;DHT22;23733;53.254;10.430;2023-07-20T21:15:10;17.90;99.90
37896;DHT22;23733;53.254;10.430;2023-07-20T21:17:36;17.90;99.90
37896;DHT22;23733;53.254;10.430;2023-07-20T21:20:03;17.90;99.90
37896;DHT22;23733;53.254;10.430;2023-07-20T21:22:29;17.90;99.90